createdAt,value
2023-02-09T00:01:36.947Z,12.03
2023-02-09T00:04:03.838Z,12.50
2023-02-09T00:06:30.686Z,12.60
2023-02-09T00:08:58.748Z,12.17
2023-02-09T00:11:47.425Z,13.03
2023-02-09T00:14:15.869Z,13.70
2023-02-09T00:16:43.002Z,12.10
2023-02-09T00:19:10.273Z,12.10
2023-02-09T00:21:36.895Z,10.60
2023-02-09T00:24:03.652Z,11.17
2023-02-09T00:26:30.333Z,11.50
2023-02-09T00:28:56.911Z,12.57
2023-02-09T00:31:23.614Z,10.73
2023-02-09T00:33:50.304Z,11.60
2023-02-09T00:36:17.058Z,11.50
2023-02-09T00:38:44.368Z,11.47
2023-02-09T00:41:12.353Z,11.10
2023-02-09T00:43:39.340Z,10.50
2023-02-09T00:46:06.464Z,10.87
2023-02-09T00:48:33.129Z,10.80
2023-02-09T00:51:00.246Z,10.37
2023-02-09T00:53:27.428Z,10.57
2023-02-09T00:55:54.052Z,10.70
2023-02-09T00:58:20.705Z,10.80
2023-02-09T01:00:49.054Z,11.17
2023-02-09T01:03:15.731Z,10.57
2023-02-09T01:05:43.178Z,11.20
2023-02-09T01:08:10.194Z,11.67
2023-02-09T01:10:38.059Z,11.10
2023-02-09T01:13:05.186Z,11.13
2023-02-09T01:15:31.800Z,10.30
2023-02-09T01:17:58.958Z,9.80
2023-02-09T01:20:25.637Z,10.73
2023-02-09T01:22:52.274Z,10.37
2023-02-09T01:25:18.843Z,10.67
2023-02-09T01:27:45.446Z,10.20
2023-02-09T01:30:12.628Z,9.77
2023-02-09T01:32:39.365Z,10.27
2023-02-09T01:35:06.373Z,10.53
2023-02-09T01:37:34.932Z,10.43
2023-02-09T01:40:01.862Z,10.20
2023-02-09T01:42:28.567Z,9.90
2023-02-09T01:45:17.123Z,9.50
2023-02-09T01:47:57.060Z,9.40
2023-02-09T01:50:24.165Z,9.73
2023-02-09T01:52:50.846Z,10.20
2023-02-09T01:55:21.255Z,9.23
2023-02-09T01:57:56.177Z,9.47
2023-02-09T02:00:23.314Z,9.47
2023-02-09T02:02:56.888Z,8.90
2023-02-09T02:05:23.730Z,8.90
2023-02-09T02:08:13.492Z,9.53
2023-02-09T02:10:40.463Z,9.10
2023-02-09T02:13:07.035Z,8.97
2023-02-09T02:15:44.491Z,9.13
2023-02-09T02:18:17.472Z,8.80
2023-02-09T02:20:59.230Z,8.70
2023-02-09T02:23:48.581Z,9.37
2023-02-09T02:26:44.130Z,9.40
2023-02-09T02:29:22.531Z,8.93
2023-02-09T02:32:03.660Z,8.37
2023-02-09T02:35:00.897Z,7.87
2023-02-09T02:37:51.696Z,8.93
2023-02-09T02:40:49.817Z,8.93
2023-02-09T02:43:23.893Z,9.10
2023-02-09T02:46:09.899Z,9.10
2023-02-09T02:48:42.773Z,8.30
2023-02-09T02:51:26.366Z,8.70
2023-02-09T02:53:58.708Z,8.57
2023-02-09T02:56:29.870Z,9.07
2023-02-09T02:58:58.651Z,8.80
2023-02-09T03:01:30.143Z,8.87
2023-02-09T03:03:57.400Z,9.57
2023-02-09T03:06:23.932Z,10.10
2023-02-09T03:08:54.097Z,8.40
2023-02-09T03:11:23.166Z,8.40
2023-02-09T03:14:23.580Z,8.83
2023-02-09T03:19:59.909Z,9.07
2023-02-09T03:22:32.067Z,8.87
2023-02-09T03:25:10.426Z,8.57
2023-02-09T03:27:42.631Z,8.57
2023-02-09T03:30:12.008Z,9.23
2023-02-09T03:32:40.415Z,8.80
2023-02-09T03:35:08.929Z,8.83
2023-02-09T03:37:35.433Z,9.03
2023-02-09T03:40:02.273Z,9.33
2023-02-09T03:42:28.911Z,8.83
2023-02-09T03:44:55.438Z,8.87
2023-02-09T03:47:21.985Z,9.03
2023-02-09T03:49:48.435Z,9.00
2023-02-09T03:52:16.366Z,8.87
2023-02-09T03:54:43.166Z,8.73
2023-02-09T03:57:10.351Z,9.30
2023-02-09T03:59:37.652Z,9.20
2023-02-09T04:02:06.692Z,8.73
2023-02-09T04:04:33.734Z,8.80
2023-02-09T04:07:00.541Z,9.13
2023-02-09T04:09:27.678Z,8.37
2023-02-09T04:11:54.378Z,9.70
2023-02-09T04:14:20.963Z,8.67
2023-02-09T04:16:48.019Z,9.60
2023-02-09T04:19:14.599Z,9.33
2023-02-09T04:21:41.186Z,9.23
2023-02-09T04:24:08.569Z,9.47
2023-02-09T04:26:35.836Z,9.20
2023-02-09T04:29:02.512Z,9.50
2023-02-09T04:31:29.400Z,9.77
2023-02-09T04:33:56.047Z,9.30
2023-02-09T04:36:23.682Z,10.20
2023-02-09T04:38:50.629Z,10.33
2023-02-09T04:41:17.242Z,9.83
2023-02-09T04:43:43.855Z,9.73
2023-02-09T04:46:14.594Z,9.33
2023-02-09T04:48:41.412Z,9.63
2023-02-09T04:51:08.511Z,10.30
2023-02-09T04:53:35.282Z,9.80
2023-02-09T04:56:01.971Z,9.23
2023-02-09T04:58:48.438Z,10.00
2023-02-09T05:01:24.795Z,9.73
2023-02-09T05:03:52.408Z,10.23
2023-02-09T05:06:19.595Z,9.63
2023-02-09T05:08:46.159Z,9.47
2023-02-09T05:11:13.226Z,10.10
2023-02-09T05:13:39.874Z,10.63
2023-02-09T05:16:07.796Z,10.47
2023-02-09T05:18:35.641Z,9.67
2023-02-09T05:21:02.440Z,10.27
2023-02-09T05:23:29.244Z,10.00
2023-02-09T05:25:56.771Z,10.07
2023-02-09T05:28:24.492Z,10.30
2023-02-09T05:30:54.786Z,10.13
2023-02-09T05:33:22.563Z,10.10
2023-02-09T05:35:49.884Z,10.07
2023-02-09T05:38:16.417Z,11.50
2023-02-09T05:40:45.062Z,9.97
2023-02-09T05:43:11.809Z,11.30
2023-02-09T05:45:38.500Z,10.50
2023-02-09T05:48:05.566Z,10.53
2023-02-09T05:50:32.157Z,9.90
2023-02-09T05:53:00.341Z,11.03
2023-02-09T05:55:27.282Z,11.00
2023-02-09T05:57:53.796Z,11.67
2023-02-09T06:00:20.833Z,11.57
2023-02-09T06:02:47.382Z,10.70
2023-02-09T06:05:14.215Z,11.60
2023-02-09T06:07:40.804Z,10.70
2023-02-09T06:10:07.673Z,11.17
2023-02-09T06:12:34.384Z,11.00
2023-02-09T06:15:00.958Z,11.00
2023-02-09T06:17:27.716Z,10.53
2023-02-09T06:19:54.404Z,11.13
2023-02-09T06:22:20.924Z,10.70
2023-02-09T06:24:47.477Z,11.80
2023-02-09T06:27:14.088Z,11.00
2023-02-09T06:29:40.648Z,10.50
2023-02-09T06:32:07.305Z,10.63
2023-02-09T06:34:34.275Z,11.03
2023-02-09T06:37:00.815Z,11.50
2023-02-09T06:39:27.535Z,10.60
2023-02-09T06:41:54.013Z,10.97
2023-02-09T06:44:20.721Z,11.13
2023-02-09T06:46:47.390Z,11.80
2023-02-09T06:49:13.932Z,12.23
2023-02-09T06:51:40.597Z,12.60
2023-02-09T06:54:07.148Z,11.37
2023-02-09T06:56:33.673Z,11.77
2023-02-09T06:59:00.442Z,11.30
2023-02-09T07:01:26.988Z,11.63
2023-02-09T07:03:53.699Z,11.87
2023-02-09T07:06:21.313Z,11.97
2023-02-09T07:08:49.065Z,11.67
2023-02-09T07:11:17.475Z,11.67
2023-02-09T07:13:45.806Z,12.13
2023-02-09T07:16:13.007Z,11.97
2023-02-09T07:18:39.920Z,11.57
2023-02-09T07:21:09.518Z,11.90
2023-02-09T07:23:36.608Z,10.60
2023-02-09T07:26:08.825Z,11.70
2023-02-09T07:28:36.160Z,11.53
2023-02-09T07:31:05.014Z,11.87
2023-02-09T07:33:32.027Z,11.40
2023-02-09T07:35:58.933Z,11.60
2023-02-09T07:38:25.603Z,10.60
2023-02-09T07:40:52.331Z,12.40
2023-02-09T07:43:18.864Z,11.97
2023-02-09T07:45:45.710Z,11.40
2023-02-09T07:48:12.453Z,12.07
2023-02-09T07:50:39.015Z,11.27
2023-02-09T07:53:05.765Z,11.13
2023-02-09T07:55:32.317Z,12.47
2023-02-09T07:57:58.841Z,11.50
2023-02-09T08:00:25.777Z,12.30
2023-02-09T08:02:52.692Z,11.70
2023-02-09T08:05:42.824Z,11.43
2023-02-09T08:08:09.541Z,12.50
2023-02-09T08:10:38.777Z,10.97
2023-02-09T08:13:05.512Z,12.07
2023-02-09T08:15:39.690Z,13.37
2023-02-09T08:18:13.013Z,12.00
2023-02-09T08:20:39.994Z,11.83
2023-02-09T08:23:10.738Z,12.10
2023-02-09T08:25:37.661Z,11.37
2023-02-09T08:28:07.171Z,11.57
2023-02-09T08:30:34.491Z,11.93
2023-02-09T08:50:56.268Z,13.10
2023-02-09T08:53:22.742Z,12.50
2023-02-09T08:55:49.340Z,12.33
2023-02-09T08:58:15.949Z,12.50
2023-02-09T09:04:29.687Z,11.27
2023-02-09T09:07:05.588Z,12.57
2023-02-09T09:09:32.167Z,13.00
2023-02-09T09:11:58.810Z,12.20
2023-02-09T09:14:26.595Z,11.20
2023-02-09T09:16:53.434Z,11.60
2023-02-09T09:19:20.200Z,12.97
2023-02-09T09:21:46.739Z,12.80
2023-02-09T09:24:13.380Z,12.20
2023-02-09T09:26:39.833Z,12.30
2023-02-09T09:29:06.350Z,12.70
2023-02-09T09:31:33.704Z,12.20
2023-02-09T09:34:00.420Z,12.87
2023-02-09T09:36:27.059Z,12.13
2023-02-09T09:38:55.716Z,12.77
2023-02-09T09:41:26.452Z,11.80
2023-02-09T09:43:53.965Z,11.70
2023-02-09T09:46:23.695Z,11.87
2023-02-09T09:48:59.623Z,12.27
2023-02-09T09:51:26.046Z,12.23
2023-02-09T09:53:55.020Z,11.50
2023-02-09T09:56:21.711Z,11.77
2023-02-09T09:58:49.564Z,11.20
2023-02-09T10:01:18.148Z,11.37
2023-02-09T10:03:44.759Z,8.67
2023-02-09T10:06:20.619Z,9.80
2023-02-09T10:09:16.476Z,11.70
2023-02-09T10:11:47.016Z,11.57
2023-02-09T10:14:13.687Z,10.60
2023-02-09T10:16:40.893Z,10.47
2023-02-09T10:19:21.248Z,10.73
2023-02-09T10:21:48.978Z,10.63
2023-02-09T10:24:23.816Z,10.97
2023-02-09T10:27:21.285Z,10.23
2023-02-09T10:29:47.812Z,10.77
2023-02-09T10:32:23.996Z,9.67
2023-02-09T10:34:52.836Z,10.60
2023-02-09T10:37:27.905Z,10.10
2023-02-09T10:40:21.563Z,9.83
2023-02-09T10:42:54.291Z,9.03
2023-02-09T10:45:41.608Z,10.47
2023-02-09T10:48:14.229Z,9.50
2023-02-09T10:51:28.982Z,10.67
2023-02-09T10:53:55.659Z,10.53
2023-02-09T10:56:25.008Z,9.83
2023-02-09T10:59:14.523Z,9.90
2023-02-09T11:01:42.885Z,11.17
2023-02-09T11:04:21.422Z,8.43
2023-02-09T11:07:04.033Z,10.13
2023-02-09T11:09:35.482Z,10.10
2023-02-09T11:12:02.408Z,10.17
2023-02-09T11:14:29.346Z,11.37
2023-02-09T11:17:40.653Z,9.87
2023-02-09T11:20:13.099Z,10.80
2023-02-09T11:22:52.151Z,9.17
2023-02-09T11:25:40.492Z,8.53
2023-02-09T11:28:34.345Z,10.40
2023-02-09T11:31:19.334Z,10.43
2023-02-09T11:33:49.158Z,10.00
2023-02-09T11:36:34.368Z,9.90
2023-02-09T11:39:04.659Z,7.60
2023-02-09T11:41:57.247Z,9.30
2023-02-09T11:44:30.835Z,11.47
2023-02-09T11:47:09.671Z,9.27
2023-02-09T11:49:48.991Z,8.40
2023-02-09T11:52:27.334Z,8.67
2023-02-09T11:54:58.032Z,8.83
2023-02-09T11:57:34.552Z,10.03
2023-02-09T12:00:05.637Z,10.83
2023-02-09T12:02:41.277Z,8.90
2023-02-09T12:05:11.303Z,9.90
2023-02-09T12:08:14.579Z,8.90
2023-02-09T12:11:25.871Z,9.47
2023-02-09T12:14:01.972Z,10.70
2023-02-09T12:16:34.211Z,10.00
2023-02-09T12:19:01.735Z,10.13
2023-02-09T12:21:32.448Z,10.37
2023-02-09T12:24:00.159Z,10.03
2023-02-09T12:26:43.306Z,9.60
2023-02-09T12:29:38.963Z,10.40
2023-02-09T12:32:06.396Z,10.20
2023-02-09T12:34:46.271Z,10.57
2023-02-09T12:37:12.902Z,6.20
2023-02-09T12:40:02.223Z,7.07
2023-02-09T12:42:38.376Z,9.53
2023-02-09T12:45:37.885Z,8.87
2023-02-09T12:48:07.623Z,10.73
2023-02-09T12:50:43.547Z,9.77
2023-02-09T12:53:22.597Z,10.33
2023-02-09T12:56:09.019Z,11.00
2023-02-09T12:58:44.535Z,10.37
2023-02-09T13:01:15.266Z,10.07
2023-02-09T13:12:43.242Z,10.30
2023-02-09T13:15:14.843Z,9.87
2023-02-09T13:17:53.313Z,11.03
2023-02-09T13:20:22.547Z,11.33
2023-02-09T13:23:10.452Z,9.80
2023-02-09T13:25:39.303Z,11.10
2023-02-09T13:28:17.840Z,10.53
2023-02-09T13:30:45.474Z,9.30
2023-02-09T13:33:11.928Z,9.77
2023-02-09T13:35:47.581Z,10.17
2023-02-09T13:38:16.842Z,9.07
2023-02-09T13:40:48.697Z,8.13
2023-02-09T13:43:19.033Z,7.53
2023-02-09T13:45:49.996Z,8.63
2023-02-09T13:48:37.749Z,8.33
2023-02-09T13:51:14.814Z,8.40
2023-02-09T13:53:41.425Z,8.77
2023-02-09T13:56:09.824Z,8.50
2023-02-09T13:58:37.463Z,8.13
2023-02-09T14:01:08.232Z,7.90
2023-02-09T14:03:58.220Z,8.50
2023-02-09T14:06:28.340Z,10.13
2023-02-09T14:08:55.277Z,9.03
2023-02-09T14:11:42.974Z,7.67
2023-02-09T14:14:16.190Z,8.53
2023-02-09T14:16:53.039Z,8.13
2023-02-09T14:19:28.491Z,8.10
2023-02-09T14:21:55.335Z,8.87
2023-02-09T14:24:26.425Z,9.03
2023-02-09T14:26:55.488Z,9.73
2023-02-09T14:29:28.638Z,9.50
2023-02-09T14:31:56.730Z,9.50
2023-02-09T14:34:35.826Z,8.40
2023-02-09T14:37:11.264Z,8.63
2023-02-09T14:40:01.259Z,8.57
2023-02-09T14:42:29.303Z,8.37
2023-02-09T14:45:25.154Z,8.70
2023-02-09T14:47:51.973Z,9.30
2023-02-09T14:50:24.037Z,8.20
2023-02-09T14:52:53.965Z,8.57
2023-02-09T14:55:20.664Z,8.50
2023-02-09T14:57:47.384Z,8.67
2023-02-09T15:00:17.091Z,8.90
2023-02-09T15:02:44.116Z,8.90
2023-02-09T15:05:10.819Z,8.47
2023-02-09T15:07:43.198Z,8.57
2023-02-09T15:10:39.594Z,8.33
2023-02-09T15:13:06.139Z,8.43
2023-02-09T15:15:37.672Z,9.63
2023-02-09T15:18:04.457Z,9.70
2023-02-09T15:20:31.532Z,9.33
2023-02-09T15:22:58.358Z,7.80
2023-02-09T15:25:25.475Z,7.50
2023-02-09T15:27:57.608Z,6.83
2023-02-09T15:30:27.258Z,6.80
2023-02-09T15:32:53.806Z,7.33
2023-02-09T15:35:23.004Z,7.47
2023-02-09T15:37:53.258Z,10.13
2023-02-09T15:40:45.924Z,10.77
2023-02-09T15:43:33.771Z,10.07
2023-02-09T15:46:18.935Z,10.40
2023-02-09T15:48:45.683Z,10.03
2023-02-09T15:51:12.654Z,10.20
2023-02-09T15:53:39.583Z,9.90
2023-02-09T15:56:10.277Z,9.77
2023-02-09T15:58:40.749Z,9.53
2023-02-09T16:01:07.789Z,11.17
2023-02-09T16:03:34.267Z,10.20
2023-02-09T16:06:04.027Z,10.17
2023-02-09T16:08:36.948Z,10.23
2023-02-09T16:11:09.558Z,11.07
2023-02-09T16:13:36.440Z,9.90
2023-02-09T16:16:16.172Z,10.27
2023-02-09T16:18:44.711Z,10.93
2023-02-09T16:21:30.645Z,10.53
2023-02-09T16:23:58.999Z,10.80
2023-02-09T16:26:26.893Z,14.40
2023-02-09T16:28:54.122Z,13.83
2023-02-09T16:31:21.633Z,11.47
2023-02-09T16:33:50.197Z,9.97
2023-02-09T16:36:21.052Z,10.70
2023-02-09T16:38:47.792Z,10.63
2023-02-09T16:41:34.958Z,10.27
2023-02-09T16:44:02.732Z,10.80
2023-02-09T16:46:30.363Z,11.50
2023-02-09T16:48:57.915Z,10.20
2023-02-09T16:51:24.787Z,11.03
2023-02-09T16:53:51.910Z,10.83
2023-02-09T16:56:19.824Z,10.73
2023-02-09T16:58:47.591Z,15.07
2023-02-09T17:01:17.450Z,13.03
2023-02-09T17:03:49.700Z,12.13
2023-02-09T17:06:20.024Z,11.83
2023-02-09T17:08:46.855Z,12.53
2023-02-09T17:11:21.907Z,12.03
2023-02-09T17:13:48.764Z,11.80
2023-02-09T17:16:27.999Z,11.60
2023-02-09T17:18:56.888Z,11.23
2023-02-09T17:21:33.314Z,11.20
2023-02-09T17:23:59.994Z,12.23
2023-02-09T17:26:27.568Z,11.47
2023-02-09T17:28:54.380Z,11.00
2023-02-09T17:31:26.775Z,11.47
2023-02-09T17:33:58.430Z,11.03
2023-02-09T17:36:27.862Z,11.83
2023-02-09T17:38:59.481Z,11.63
2023-02-09T17:41:32.170Z,11.73
2023-02-09T17:44:19.661Z,11.20
2023-02-09T17:46:50.555Z,11.43
2023-02-09T17:49:17.183Z,12.27
2023-02-09T17:51:46.176Z,11.33
2023-02-09T17:54:19.573Z,12.10
2023-02-09T17:56:46.668Z,12.40
2023-02-09T17:59:13.441Z,12.10
2023-02-09T18:01:43.141Z,12.60
2023-02-09T18:04:16.529Z,12.40
2023-02-09T18:06:43.274Z,12.20
2023-02-09T18:09:12.422Z,12.30
2023-02-09T18:11:57.148Z,14.07
2023-02-09T18:14:24.921Z,12.13
2023-02-09T18:16:52.230Z,11.73
2023-02-09T18:19:19.395Z,12.70
2023-02-09T18:22:10.360Z,12.03
2023-02-09T18:24:36.996Z,12.27
2023-02-09T18:27:03.582Z,11.00
2023-02-09T18:29:30.680Z,13.50
2023-02-09T18:32:00.975Z,11.53
2023-02-09T18:34:27.942Z,11.93
2023-02-09T18:36:54.816Z,12.47
2023-02-09T18:39:21.320Z,12.03
2023-02-09T18:41:53.987Z,15.47
2023-02-09T18:44:24.577Z,11.80
2023-02-09T18:46:51.332Z,11.90
2023-02-09T18:49:18.024Z,13.07
2023-02-09T18:51:44.528Z,13.00
2023-02-09T18:54:11.281Z,13.03
2023-02-09T18:56:37.990Z,13.30
2023-02-09T18:59:05.019Z,12.33
2023-02-09T19:01:31.860Z,12.37
2023-02-09T19:03:58.527Z,11.90
2023-02-09T19:06:25.487Z,13.83
2023-02-09T19:08:52.329Z,12.93
2023-02-09T19:11:22.093Z,12.60
2023-02-09T19:14:07.704Z,12.47
2023-02-09T19:16:37.767Z,12.93
2023-02-09T19:19:04.556Z,13.67
2023-02-09T19:21:32.292Z,12.80
2023-02-09T19:23:58.980Z,12.80
2023-02-09T19:26:25.547Z,12.23
2023-02-09T19:28:52.091Z,12.53
2023-02-09T19:31:18.724Z,12.80
2023-02-09T19:33:45.544Z,12.67
2023-02-09T19:36:12.419Z,13.00
2023-02-09T19:38:38.903Z,12.87
2023-02-09T19:41:12.544Z,13.07
2023-02-09T19:43:40.178Z,13.50
2023-02-09T19:46:07.741Z,14.13
2023-02-09T19:48:34.465Z,12.83
2023-02-09T19:51:01.103Z,12.90
2023-02-09T19:53:28.025Z,12.97
2023-02-09T19:55:54.905Z,13.53
2023-02-09T19:58:21.887Z,13.30
2023-02-09T20:00:53.445Z,13.40
2023-02-09T20:03:20.168Z,13.27
2023-02-09T20:05:47.046Z,14.33
2023-02-09T20:08:16.312Z,13.83
2023-02-09T20:10:44.215Z,15.30
2023-02-09T20:13:13.896Z,15.80
2023-02-09T20:15:46.000Z,14.63
2023-02-09T20:18:14.910Z,15.30
2023-02-09T20:20:44.065Z,15.80
2023-02-09T20:23:10.608Z,16.70
2023-02-09T20:25:40.704Z,16.83
2023-02-09T20:28:07.424Z,16.60
2023-02-09T20:30:34.324Z,16.97
2023-02-09T20:33:01.012Z,17.40
2023-02-09T20:35:27.484Z,18.47
2023-02-09T20:37:54.314Z,17.77
2023-02-09T20:40:21.643Z,18.50
2023-02-09T20:43:07.018Z,18.63
2023-02-09T20:45:52.357Z,18.33
2023-02-09T20:48:19.688Z,18.07
2023-02-09T20:50:46.529Z,19.07
2023-02-09T20:53:13.181Z,19.53
2023-02-09T20:55:39.725Z,17.83
2023-02-09T20:58:06.358Z,18.30
2023-02-09T21:00:32.972Z,18.40
2023-02-09T21:02:59.535Z,18.33
2023-02-09T21:05:26.161Z,19.60
2023-02-09T21:07:52.857Z,19.23
2023-02-09T21:10:19.366Z,18.87
2023-02-09T21:12:47.052Z,18.77
2023-02-09T21:15:14.528Z,18.37
2023-02-09T21:17:47.523Z,18.77
2023-02-09T21:20:17.469Z,19.93
2023-02-09T21:22:44.051Z,20.43
2023-02-09T21:25:10.892Z,19.70
2023-02-09T21:27:37.506Z,20.13
2023-02-09T21:30:04.766Z,20.10
2023-02-09T21:32:34.862Z,20.23
2023-02-09T21:35:01.399Z,20.13
2023-02-09T21:37:31.720Z,21.60
2023-02-09T21:40:02.846Z,20.40
2023-02-09T21:42:31.222Z,21.53
2023-02-09T21:44:58.665Z,21.80
2023-02-09T21:47:32.903Z,21.17
2023-02-09T21:49:59.953Z,21.63
2023-02-09T21:52:26.871Z,22.00
2023-02-09T21:54:54.158Z,21.33
2023-02-09T21:57:20.905Z,22.40
2023-02-09T21:59:47.369Z,22.67
2023-02-09T22:02:16.415Z,23.70
2023-02-09T22:04:43.807Z,22.97
2023-02-09T22:07:11.174Z,24.27
2023-02-09T22:09:37.760Z,23.67
2023-02-09T22:12:05.097Z,24.20
2023-02-09T22:14:32.077Z,24.37
2023-02-09T22:16:59.027Z,23.17
2023-02-09T22:19:25.799Z,24.90
2023-02-09T22:21:52.434Z,24.83
2023-02-09T22:24:19.878Z,25.23
2023-02-09T22:26:47.043Z,24.30
2023-02-09T22:29:14.748Z,24.97
2023-02-09T22:31:41.372Z,25.47
2023-02-09T22:34:08.302Z,24.60
2023-02-09T22:36:35.187Z,25.17
2023-02-09T22:39:03.656Z,25.10
2023-02-09T22:41:30.237Z,25.90
2023-02-09T22:44:05.470Z,25.73
2023-02-09T22:46:37.142Z,24.97
2023-02-09T22:49:06.426Z,27.17
2023-02-09T22:51:35.020Z,25.83
2023-02-09T22:54:02.121Z,26.33
2023-02-09T22:56:29.328Z,25.93
2023-02-09T22:58:57.473Z,25.07
2023-02-09T23:01:24.285Z,24.50
2023-02-09T23:03:51.032Z,26.43
2023-02-09T23:06:19.803Z,25.73
2023-02-09T23:08:47.227Z,24.73
2023-02-09T23:11:16.601Z,25.37
2023-02-09T23:13:43.723Z,23.97
2023-02-09T23:16:17.265Z,24.73
2023-02-09T23:18:54.439Z,24.87
2023-02-09T23:21:22.818Z,25.50
2023-02-09T23:23:49.994Z,26.17
2023-02-09T23:26:17.730Z,26.03
2023-02-09T23:28:44.719Z,25.23
2023-02-09T23:31:14.600Z,25.90
2023-02-09T23:33:41.399Z,25.30
2023-02-09T23:36:16.540Z,26.63
2023-02-09T23:38:44.131Z,25.13
2023-02-09T23:41:13.241Z,26.20
2023-02-09T23:43:40.070Z,26.07
2023-02-09T23:46:11.106Z,25.70
2023-02-09T23:48:37.884Z,26.37
2023-02-09T23:51:07.248Z,24.80
2023-02-09T23:53:34.338Z,27.13
2023-02-09T23:56:03.869Z,25.57
2023-02-09T23:58:42.328Z,27.40
